Sharon, SC

11:32 AM EDT on September 02, 2014 (GMT -0400)
Hilton Pond Center for Piedmont Natural History | Change Station
CLOSE
Current Station
Personal Weather Station
Location: York, SC
Elevation: 705 ft
Nearby Weather Stations

Elev 705 ft 34.97 °N, 81.22 °W | Updated 7 seconds ago

Clear
Clear
85.4 °F
Feels Like 94 °F
N
0.0
Wind Variable Wind from West
Gusts 3.0 mph

Today
High -- | Low -- °F
--% Chance of Precip.
Yesterday
High -- | Low -- °F
Precip. -- in
6:58 AM 7:50 PM
First Quarter, 52% visible
Pressure 30.06 in
Visibility 10.0 miles
Clouds Clear
Heat Index 94 °F
Dew Point 74 °F
Humidity 70%
Rainfall 0.00 in
Snow Depth Not available.
UV 7 out of 12
Pollen 9.90 out of 12
Ozone Good
Flu Activity Not available.
METAR KUZA 021454Z AUTO 00000KT 10SM CLR 30/22 A3010 RMK AO2 SLP179 T03000222 53001

More Conditions Fewer Conditions

Pressure 30.06 in
Visibility 10.0 miles
Clouds Clear
Heat Index 94 °F
Dew Point 74 °F
Humidity 70%
Rainfall 0.00 in
Snow Depth Not available.
UV 7 out of 12
Pollen 9.90 out of 12
Ozone Good
Flu Activity Not available.
METAR KUZA 021454Z AUTO 00000KT 10SM CLR 30/22 A3010 RMK AO2 SLP179 T03000222 53001

More Conditions Fewer Conditions

10-Day Weather Forecast

Almanac

Astronomy

Sep. 02, 2014 Rise Set
Actual Time 6:58 AM EDT 7:50 PM EDT
Civil Twilight 6:33 AM EDT 8:16 PM EDT
Nautical Twilight 6:02 AM EDT 8:46 PM EDT
Astronomical Twilight 5:31 AM EDT 9:18 PM EDT
Moon 2:25 PM EDT 12:07 AM EDT
Length of Visible Light 13h 43m
Length of Day
12h 51m
Tomorrow will be 2m 6s shorter.
First Quarter, 52% of the Moon is Illuminated
Today
First Quarter
Sep 8
Full
Sep 15
Last Quarter
Sep 24
New
Oct 1
First Quarter

Today's Extremes

State Highs State Lows

Community

WunderPhotos

Upload Photos

1,749,700 photos uploaded!

Nearby

Air Quality

  Air Quality AQ Index Pollutant
Yesterday Good
OZONE
Current Good
OZONE
Tuesday Good
OZONE

Snow Depth

Station Depth Elevation
No new snow has been reported.

Earthquake Activity

City Distance Mag. Time & Date
No recent earthquake activity has been reported nearby.
Minimum magnitude displayed is 2.5.

Coastal Water Temperatures

Place Temperature
No Stations Reporting

Nearby Weather Stations